sensor_id;sensor_type;location;lat;lon;timestamp;pressure;altitude;pressure_sealevel;temperature;humidity
85153;BME280;75520;43.358;19.362;2024-02-21T00:00:56;93682.72;;;1.80;94.17
85153;BME280;75520;43.358;19.362;2024-02-21T00:03:22;93679.56;;;1.78;93.46
85153;BME280;75520;43.358;19.362;2024-02-21T00:05:48;93678.00;;;1.77;92.53
85153;BME280;75520;43.358;19.362;2024-02-21T00:08:14;93676.41;;;1.76;92.10
85153;BME280;75520;43.358;19.362;2024-02-21T00:10:40;93666.50;;;1.73;91.93
85153;BME280;75520;43.358;19.362;2024-02-21T00:13:05;93623.00;;;1.46;91.54
85153;BME280;75520;43.358;19.362;2024-02-21T00:15:31;93654.69;;;1.60;91.34
85153;BME280;75520;43.358;19.362;2024-02-21T00:17:56;93664.63;;;1.58;95.58
85153;BME280;75520;43.358;19.362;2024-02-21T00:20:22;93648.88;;;1.38;95.17
85153;BME280;75520;43.358;19.362;2024-02-21T00:22:47;93657.53;;;1.38;94.94
85153;BME280;75520;43.358;19.362;2024-02-21T00:25:14;93661.44;;;1.31;94.37
85153;BME280;75520;43.358;19.362;2024-02-21T00:27:40;93654.34;;;1.21;95.36
85153;BME280;75520;43.358;19.362;2024-02-21T00:30:06;93657.97;;;1.10;94.86
85153;BME280;75520;43.358;19.362;2024-02-21T00:32:31;93641.19;;;0.91;95.37
85153;BME280;75520;43.358;19.362;2024-02-21T00:35:00;93628.03;;;0.70;96.63
85153;BME280;75520;43.358;19.362;2024-02-21T00:37:26;93609.63;;;0.45;96.95
85153;BME280;75520;43.358;19.362;2024-02-21T00:39:54;93625.84;;;0.52;95.77
85153;BME280;75520;43.358;19.362;2024-02-21T00:42:19;93662.00;;;0.65;95.23
85153;BME280;75520;43.358;19.362;2024-02-21T00:44:45;93654.63;;;0.57;94.84
85153;BME280;75520;43.358;19.362;2024-02-21T00:47:10;93644.63;;;0.44;94.03
85153;BME280;75520;43.358;19.362;2024-02-21T00:49:36;93650.91;;;0.43;93.69
85153;BME280;75520;43.358;19.362;2024-02-21T00:52:01;93601.09;;;0.13;94.92
85153;BME280;75520;43.358;19.362;2024-02-21T00:54:27;93642.47;;;0.31;96.39
85153;BME280;75520;43.358;19.362;2024-02-21T00:56:52;93651.31;;;0.30;96.73
85153;BME280;75520;43.358;19.362;2024-02-21T00:59:18;93641.34;;;0.17;96.14
85153;BME280;75520;43.358;19.362;2024-02-21T01:01:43;93651.84;;;0.27;96.15
85153;BME280;75520;43.358;19.362;2024-02-21T01:04:09;93656.59;;;0.35;96.31
85153;BME280;75520;43.358;19.362;2024-02-21T01:06:35;93652.19;;;0.41;96.91
85153;BME280;75520;43.358;19.362;2024-02-21T01:09:00;93628.34;;;0.27;97.76
85153;BME280;75520;43.358;19.362;2024-02-21T01:11:26;93652.22;;;0.46;98.70
85153;BME280;75520;43.358;19.362;2024-02-21T01:13:52;93652.53;;;0.54;98.05
85153;BME280;75520;43.358;19.362;2024-02-21T01:16:18;93650.72;;;0.60;96.51
85153;BME280;75520;43.358;19.362;2024-02-21T01:18:43;93643.69;;;0.65;95.93
85153;BME280;75520;43.358;19.362;2024-02-21T01:21:09;93642.91;;;0.70;95.85
85153;BME280;75520;43.358;19.362;2024-02-21T01:23:36;93631.66;;;0.64;95.84
85153;BME280;75520;43.358;19.362;2024-02-21T01:26:03;93636.16;;;0.74;94.56
85153;BME280;75520;43.358;19.362;2024-02-21T01:28:29;93625.47;;;0.81;94.65
85153;BME280;75520;43.358;19.362;2024-02-21T01:30:54;93626.78;;;0.83;96.58
85153;BME280;75520;43.358;19.362;2024-02-21T01:33:21;93626.00;;;0.83;96.96
85153;BME280;75520;43.358;19.362;2024-02-21T01:35:46;93613.97;;;0.82;95.83
85153;BME280;75520;43.358;19.362;2024-02-21T01:38:13;93623.38;;;0.88;94.73
85153;BME280;75520;43.358;19.362;2024-02-21T01:40:38;93619.72;;;0.89;95.67
85153;BME280;75520;43.358;19.362;2024-02-21T01:43:17;93612.41;;;0.91;98.57
85153;BME280;75520;43.358;19.362;2024-02-21T01:45:49;93606.13;;;0.87;97.93
85153;BME280;75520;43.358;19.362;2024-02-21T01:48:20;93610.59;;;0.91;97.43
85153;BME280;75520;43.358;19.362;2024-02-21T01:50:47;93578.66;;;0.74;97.00
85153;BME280;75520;43.358;19.362;2024-02-21T01:53:15;93565.56;;;0.64;97.20
85153;BME280;75520;43.358;19.362;2024-02-21T01:55:47;93607.19;;;0.91;97.14
85153;BME280;75520;43.358;19.362;2024-02-21T01:58:16;93594.13;;;0.91;95.50
85153;BME280;75520;43.358;19.362;2024-02-21T02:00:43;93604.03;;;0.89;94.59
85153;BME280;75520;43.358;19.362;2024-02-21T02:03:12;93594.63;;;0.83;94.15
85153;BME280;75520;43.358;19.362;2024-02-21T02:05:48;93592.53;;;0.80;93.65
85153;BME280;75520;43.358;19.362;2024-02-21T02:08:14;93588.88;;;0.76;96.98
85153;BME280;75520;43.358;19.362;2024-02-21T02:10:40;93605.28;;;0.71;94.89
85153;BME280;75520;43.358;19.362;2024-02-21T02:13:06;93602.41;;;0.67;95.25
85153;BME280;75520;43.358;19.362;2024-02-21T02:15:45;93597.16;;;0.67;95.09
85153;BME280;75520;43.358;19.362;2024-02-21T02:18:12;93566.56;;;0.48;94.71
85153;BME280;75520;43.358;19.362;2024-02-21T02:20:38;93595.09;;;0.69;95.09
85153;BME280;75520;43.358;19.362;2024-02-21T02:23:10;93596.69;;;0.76;94.92
85153;BME280;75520;43.358;19.362;2024-02-21T02:25:36;93602.44;;;0.78;95.74
85153;BME280;75520;43.358;19.362;2024-02-21T02:28:03;93600.91;;;0.82;97.76
85153;BME280;75520;43.358;19.362;2024-02-21T02:30:29;93605.09;;;0.83;97.11
85153;BME280;75520;43.358;19.362;2024-02-21T02:32:56;93596.72;;;0.81;96.57
85153;BME280;75520;43.358;19.362;2024-02-21T02:35:22;93569.50;;;0.71;96.08
85153;BME280;75520;43.358;19.362;2024-02-21T02:37:49;93603.03;;;0.95;95.70
85153;BME280;75520;43.358;19.362;2024-02-21T02:40:14;93558.00;;;0.72;96.64
85153;BME280;75520;43.358;19.362;2024-02-21T02:42:40;93599.09;;;0.97;97.00
85153;BME280;75520;43.358;19.362;2024-02-21T02:45:06;93606.19;;;1.02;96.34
85153;BME280;75520;43.358;19.362;2024-02-21T02:47:32;93605.41;;;1.06;95.46
85153;BME280;75520;43.358;19.362;2024-02-21T02:49:57;93604.34;;;1.07;96.41
85153;BME280;75520;43.358;19.362;2024-02-21T02:52:23;93606.72;;;1.09;96.94
85153;BME280;75520;43.358;19.362;2024-02-21T02:54:48;93559.31;;;0.80;95.82
85153;BME280;75520;43.358;19.362;2024-02-21T02:57:17;93611.69;;;1.16;95.25
85153;BME280;75520;43.358;19.362;2024-02-21T02:59:48;93617.19;;;1.19;95.36
85153;BME280;75520;43.358;19.362;2024-02-21T03:02:13;93605.19;;;1.23;97.36
85153;BME280;75520;43.358;19.362;2024-02-21T03:04:39;93604.38;;;1.18;95.51
85153;BME280;75520;43.358;19.362;2024-02-21T03:07:06;93588.13;;;1.00;95.60
85153;BME280;75520;43.358;19.362;2024-02-21T03:09:31;93608.06;;;1.22;95.67
85153;BME280;75520;43.358;19.362;2024-02-21T03:11:57;93605.44;;;1.22;94.91
85153;BME280;75520;43.358;19.362;2024-02-21T03:14:28;93611.72;;;1.21;95.79
85153;BME280;75520;43.358;19.362;2024-02-21T03:16:54;93617.47;;;1.18;96.05
85153;BME280;75520;43.358;19.362;2024-02-21T03:19:19;93612.47;;;1.11;96.26
85153;BME280;75520;43.358;19.362;2024-02-21T03:21:45;93612.75;;;1.09;96.21
85153;BME280;75520;43.358;19.362;2024-02-21T03:24:10;93614.06;;;1.12;96.16
85153;BME280;75520;43.358;19.362;2024-02-21T03:26:36;93614.06;;;1.12;95.51
85153;BME280;75520;43.358;19.362;2024-02-21T03:29:03;93615.09;;;1.16;94.50
85153;BME280;75520;43.358;19.362;2024-02-21T03:31:28;93588.13;;;1.00;94.99
85153;BME280;75520;43.358;19.362;2024-02-21T03:33:54;93614.34;;;1.21;94.68
85153;BME280;75520;43.358;19.362;2024-02-21T03:36:19;93609.09;;;1.21;95.27
85153;BME280;75520;43.358;19.362;2024-02-21T03:38:45;93613.28;;;1.22;94.08
85153;BME280;75520;43.358;19.362;2024-02-21T03:41:10;93626.13;;;1.23;95.06
85153;BME280;75520;43.358;19.362;2024-02-21T03:43:37;93618.78;;;1.25;95.43
85153;BME280;75520;43.358;19.362;2024-02-21T03:46:03;93623.25;;;1.25;96.21
85153;BME280;75520;43.358;19.362;2024-02-21T03:48:29;93610.44;;;1.23;95.64
85153;BME280;75520;43.358;19.362;2024-02-21T03:50:54;93588.91;;;1.06;95.18
85153;BME280;75520;43.358;19.362;2024-02-21T03:53:19;93626.66;;;1.30;95.07
85153;BME280;75520;43.358;19.362;2024-02-21T03:55:45;93625.59;;;1.31;94.96
85153;BME280;75520;43.358;19.362;2024-02-21T03:58:10;93629.78;;;1.32;95.34
85153;BME280;75520;43.358;19.362;2024-02-21T04:00:36;93629.25;;;1.35;95.02
85153;BME280;75520;43.358;19.362;2024-02-21T04:03:02;93582.66;;;1.07;95.00
85153;BME280;75520;43.358;19.362;2024-02-21T04:05:28;93629.53;;;1.39;94.92
85153;BME280;75520;43.358;19.362;2024-02-21T04:07:53;93637.66;;;1.42;95.24
85153;BME280;75520;43.358;19.362;2024-02-21T04:10:19;93583.72;;;1.11;94.75
85153;BME280;75520;43.358;19.362;2024-02-21T04:12:44;93631.88;;;1.45;95.24
85153;BME280;75520;43.358;19.362;2024-02-21T04:15:10;93639.75;;;1.45;95.18
85153;BME280;75520;43.358;19.362;2024-02-21T04:17:36;93642.88;;;1.47;95.21
85153;BME280;75520;43.358;19.362;2024-02-21T04:20:05;93640.81;;;1.49;95.36
85153;BME280;75520;43.358;19.362;2024-02-21T04:22:33;93591.31;;;1.23;95.87
85153;BME280;75520;43.358;19.362;2024-02-21T04:25:02;93633.22;;;1.48;96.47
85153;BME280;75520;43.358;19.362;2024-02-21T04:27:28;93633.22;;;1.48;95.71
85153;BME280;75520;43.358;19.362;2024-02-21T04:29:53;93632.69;;;1.51;96.16
85153;BME280;75520;43.358;19.362;2024-02-21T04:32:19;93629.81;;;1.53;95.48
85153;BME280;75520;43.358;19.362;2024-02-21T04:34:44;93642.13;;;1.52;95.91
85153;BME280;75520;43.358;19.362;2024-02-21T04:37:10;93635.06;;;1.53;95.69
85153;BME280;75520;43.358;19.362;2024-02-21T04:39:35;93635.06;;;1.53;95.10
85153;BME280;75520;43.358;19.362;2024-02-21T04:42:01;93634.28;;;1.52;95.65
85153;BME280;75520;43.358;19.362;2024-02-21T04:44:26;93632.69;;;1.51;94.41
85153;BME280;75520;43.358;19.362;2024-02-21T04:46:52;93625.09;;;1.49;94.70
85153;BME280;75520;43.358;19.362;2024-02-21T04:49:20;93627.72;;;1.49;95.01
85153;BME280;75520;43.358;19.362;2024-02-21T04:51:45;93639.50;;;1.52;95.05
85153;BME280;75520;43.358;19.362;2024-02-21T04:54:11;93646.03;;;1.55;94.74
85153;BME280;75520;43.358;19.362;2024-02-21T04:56:37;93646.31;;;1.53;94.72
85153;BME280;75520;43.358;19.362;2024-02-21T04:59:02;93654.16;;;1.58;94.71
85153;BME280;75520;43.358;19.362;2024-02-21T05:01:31;93654.94;;;1.59;95.21
85153;BME280;75520;43.358;19.362;2024-02-21T05:03:56;93645.78;;;1.56;94.85
85153;BME280;75520;43.358;19.362;2024-02-21T05:06:22;93652.84;;;1.61;94.75
85153;BME280;75520;43.358;19.362;2024-02-21T05:08:47;93654.16;;;1.58;94.70
85153;BME280;75520;43.358;19.362;2024-02-21T05:11:13;93660.72;;;1.61;95.46
85153;BME280;75520;43.358;19.362;2024-02-21T05:13:38;93648.41;;;1.56;95.24
85153;BME280;75520;43.358;19.362;2024-02-21T05:16:04;93627.69;;;1.44;94.61
85153;BME280;75520;43.358;19.362;2024-02-21T05:18:30;93650.00;;;1.62;94.49
85153;BME280;75520;43.358;19.362;2024-02-21T05:20:55;93650.00;;;1.62;94.40
85153;BME280;75520;43.358;19.362;2024-02-21T05:23:21;93639.25;;;1.59;94.72
85153;BME280;75520;43.358;19.362;2024-02-21T05:25:46;93648.16;;;1.63;95.23
85153;BME280;75520;43.358;19.362;2024-02-21T05:28:12;93651.03;;;1.66;95.14
85153;BME280;75520;43.358;19.362;2024-02-21T05:30:37;93654.97;;;1.69;94.49
85153;BME280;75520;43.358;19.362;2024-02-21T05:33:04;93655.75;;;1.69;94.22
85153;BME280;75520;43.358;19.362;2024-02-21T05:35:31;93590.03;;;1.30;94.99
85153;BME280;75520;43.358;19.362;2024-02-21T05:37:56;93647.09;;;1.69;94.29
85153;BME280;75520;43.358;19.362;2024-02-21T05:40:22;93661.22;;;1.68;94.86
85153;BME280;75520;43.358;19.362;2024-02-21T05:42:47;93660.69;;;1.66;94.83
85153;BME280;75520;43.358;19.362;2024-02-21T05:45:13;93667.50;;;1.67;95.18
85153;BME280;75520;43.358;19.362;2024-02-21T05:47:41;93648.16;;;1.53;94.52
85153;BME280;75520;43.358;19.362;2024-02-21T05:50:07;93635.53;;;1.44;94.89
85153;BME280;75520;43.358;19.362;2024-02-21T05:52:32;93658.88;;;1.61;94.40
85153;BME280;75520;43.358;19.362;2024-02-21T05:54:58;93675.88;;;1.64;94.59
85153;BME280;75520;43.358;19.362;2024-02-21T05:57:23;93649.69;;;1.48;94.52
85153;BME280;75520;43.358;19.362;2024-02-21T05:59:49;93675.38;;;1.67;94.55
85153;BME280;75520;43.358;19.362;2024-02-21T06:02:14;93674.31;;;1.68;94.82
85153;BME280;75520;43.358;19.362;2024-02-21T06:04:40;93685.06;;;1.71;94.81
85153;BME280;75520;43.358;19.362;2024-02-21T06:07:05;93688.47;;;1.72;94.77
85153;BME280;75520;43.358;19.362;2024-02-21T06:09:31;93680.34;;;1.68;94.54
85153;BME280;75520;43.358;19.362;2024-02-21T06:11:57;93689.75;;;1.74;94.48
85153;BME280;75520;43.358;19.362;2024-02-21T06:14:22;93684.53;;;1.74;94.17
85153;BME280;75520;43.358;19.362;2024-02-21T06:16:48;93683.22;;;1.77;94.83
85153;BME280;75520;43.358;19.362;2024-02-21T06:19:13;93683.75;;;1.74;96.20
85153;BME280;75520;43.358;19.362;2024-02-21T06:21:39;93686.34;;;1.74;96.13
85153;BME280;75520;43.358;19.362;2024-02-21T06:24:04;93689.75;;;1.74;96.51
85153;BME280;75520;43.358;19.362;2024-02-21T06:26:30;93680.09;;;1.75;95.50
85153;BME280;75520;43.358;19.362;2024-02-21T06:28:55;93662.00;;;1.58;96.58
85153;BME280;75520;43.358;19.362;2024-02-21T06:31:21;93691.34;;;1.75;96.98
85153;BME280;75520;43.358;19.362;2024-02-21T06:33:47;93686.34;;;1.74;96.14
85153;BME280;75520;43.358;19.362;2024-02-21T06:36:12;93697.13;;;1.82;96.44
85153;BME280;75520;43.358;19.362;2024-02-21T06:38:38;93696.34;;;1.82;97.08
85153;BME280;75520;43.358;19.362;2024-02-21T06:41:04;93694.22;;;1.84;96.32
85153;BME280;75520;43.358;19.362;2024-02-21T06:43:30;93673.53;;;1.77;95.57
85153;BME280;75520;43.358;19.362;2024-02-21T06:45:56;93704.19;;;1.97;95.32
85153;BME280;75520;43.358;19.362;2024-02-21T06:48:22;93685.09;;;1.92;94.23
85153;BME280;75520;43.358;19.362;2024-02-21T06:50:47;93702.13;;;2.09;94.66
85153;BME280;75520;43.358;19.362;2024-02-21T06:53:13;93707.88;;;2.11;95.25
85153;BME280;75520;43.358;19.362;2024-02-21T06:55:39;93706.28;;;2.15;95.03
85153;BME280;75520;43.358;19.362;2024-02-21T06:58:05;93702.63;;;2.16;94.41
85153;BME280;75520;43.358;19.362;2024-02-21T07:00:33;93709.44;;;2.22;94.05
85153;BME280;75520;43.358;19.362;2024-02-21T07:02:59;93708.41;;;2.29;94.10
85153;BME280;75520;43.358;19.362;2024-02-21T07:05:24;93701.31;;;2.29;94.29
85153;BME280;75520;43.358;19.362;2024-02-21T07:07:50;93713.09;;;2.42;94.07
85153;BME280;75520;43.358;19.362;2024-02-21T07:10:15;93680.88;;;2.26;93.53
85153;BME280;75520;43.358;19.362;2024-02-21T07:12:41;93712.06;;;2.48;93.59
85153;BME280;75520;43.358;19.362;2024-02-21T07:15:08;93715.69;;;2.62;93.32
85153;BME280;75520;43.358;19.362;2024-02-21T07:17:34;93714.66;;;2.68;93.22
85153;BME280;75520;43.358;19.362;2024-02-21T07:19:59;93714.66;;;2.68;93.25
85153;BME280;75520;43.358;19.362;2024-02-21T07:22:26;93710.69;;;2.71;92.81
85153;BME280;75520;43.358;19.362;2024-02-21T07:24:52;93710.44;;;2.77;92.94
85153;BME280;75520;43.358;19.362;2024-02-21T07:27:17;93650.97;;;2.42;92.73
85153;BME280;75520;43.358;19.362;2024-02-21T07:29:43;93707.78;;;2.82;93.17
85153;BME280;75520;43.358;19.362;2024-02-21T07:32:12;93647.59;;;2.47;93.51
85153;BME280;75520;43.358;19.362;2024-02-21T07:34:38;93707.25;;;2.85;92.97
85153;BME280;75520;43.358;19.362;2024-02-21T07:37:03;93673.19;;;2.70;92.64
85153;BME280;75520;43.358;19.362;2024-02-21T07:39:29;93705.91;;;2.98;92.69
85153;BME280;75520;43.358;19.362;2024-02-21T07:41:54;93712.19;;;3.02;93.74
85153;BME280;75520;43.358;19.362;2024-02-21T07:44:20;93711.63;;;3.10;93.27
85153;BME280;75520;43.358;19.362;2024-02-21T07:46:45;93705.03;;;3.23;92.91
85153;BME280;75520;43.358;19.362;2024-02-21T07:49:11;93709.69;;;3.41;92.31
85153;BME280;75520;43.358;19.362;2024-02-21T07:51:36;93705.91;;;3.57;91.45
85153;BME280;75520;43.358;19.362;2024-02-21T07:54:02;93702.69;;;3.70;91.60
85153;BME280;75520;43.358;19.362;2024-02-21T07:56:29;93714.72;;;3.77;91.33
85153;BME280;75520;43.358;19.362;2024-02-21T07:58:55;93709.22;;;3.78;90.99
85153;BME280;75520;43.358;19.362;2024-02-21T08:01:20;93705.38;;;3.60;91.23
85153;BME280;75520;43.358;19.362;2024-02-21T08:03:46;93695.19;;;3.54;91.04
85153;BME280;75520;43.358;19.362;2024-02-21T08:06:13;93672.88;;;3.46;91.18
85153;BME280;75520;43.358;19.362;2024-02-21T08:08:39;93684.09;;;3.62;90.98
85153;BME280;75520;43.358;19.362;2024-02-21T08:11:05;93705.28;;;3.76;90.48
85153;BME280;75520;43.358;19.362;2024-02-21T08:13:30;93694.28;;;3.73;90.79
85153;BME280;75520;43.358;19.362;2024-02-21T08:15:56;93695.84;;;3.75;90.92
85153;BME280;75520;43.358;19.362;2024-02-21T08:18:22;93701.88;;;3.75;91.09
85153;BME280;75520;43.358;19.362;2024-02-21T08:20:48;93695.84;;;3.75;90.51
85153;BME280;75520;43.358;19.362;2024-02-21T08:23:18;93701.81;;;3.85;90.78
85153;BME280;75520;43.358;19.362;2024-02-21T08:25:44;93703.09;;;3.93;89.98
85153;BME280;75520;43.358;19.362;2024-02-21T08:28:09;93701.75;;;3.95;89.64
85153;BME280;75520;43.358;19.362;2024-02-21T08:30:35;93697.78;;;3.98;89.37
85153;BME280;75520;43.358;19.362;2024-02-21T08:33:01;93691.94;;;4.06;89.12
85153;BME280;75520;43.358;19.362;2024-02-21T08:35:26;93690.28;;;4.20;88.46
85153;BME280;75520;43.358;19.362;2024-02-21T08:37:52;93689.16;;;4.31;88.29
85153;BME280;75520;43.358;19.362;2024-02-21T08:40:18;93690.06;;;4.45;88.75
85153;BME280;75520;43.358;19.362;2024-02-21T08:42:46;93682.31;;;4.59;87.94
85153;BME280;75520;43.358;19.362;2024-02-21T08:45:11;93686.44;;;4.70;87.25
85153;BME280;75520;43.358;19.362;2024-02-21T08:47:40;93692.84;;;4.83;86.98
85153;BME280;75520;43.358;19.362;2024-02-21T08:50:06;93693.31;;;4.90;86.85
85153;BME280;75520;43.358;19.362;2024-02-21T08:52:32;93686.44;;;4.94;86.80
85153;BME280;75520;43.358;19.362;2024-02-21T08:54:58;93692.91;;;5.02;86.42
85153;BME280;75520;43.358;19.362;2024-02-21T08:57:23;93637.50;;;4.69;85.97
85153;BME280;75520;43.358;19.362;2024-02-21T08:59:49;93687.34;;;5.08;85.92
85153;BME280;75520;43.358;19.362;2024-02-21T09:02:14;93691.19;;;5.16;85.78
85153;BME280;75520;43.358;19.362;2024-02-21T09:04:43;93693.56;;;5.17;85.71
85153;BME280;75520;43.358;19.362;2024-02-21T09:07:11;93693.19;;;5.24;85.93
85153;BME280;75520;43.358;19.362;2024-02-21T09:09:37;93689.28;;;5.21;85.64
85153;BME280;75520;43.358;19.362;2024-02-21T09:12:06;93693.50;;;4.99;85.83
85153;BME280;75520;43.358;19.362;2024-02-21T09:14:32;93666.38;;;4.74;86.72
85153;BME280;75520;43.358;19.362;2024-02-21T09:16:58;93692.97;;;4.97;86.62
85153;BME280;75520;43.358;19.362;2024-02-21T09:19:23;93704.28;;;4.97;86.17
85153;BME280;75520;43.358;19.362;2024-02-21T09:21:49;93700.63;;;4.93;86.23
85153;BME280;75520;43.358;19.362;2024-02-21T09:24:15;93666.72;;;4.68;86.03
85153;BME280;75520;43.358;19.362;2024-02-21T09:26:40;93703.84;;;4.90;85.97
85153;BME280;75520;43.358;19.362;2024-02-21T09:29:06;93657.69;;;4.50;85.96
85153;BME280;75520;43.358;19.362;2024-02-21T09:31:31;93696.97;;;4.65;86.54
85153;BME280;75520;43.358;19.362;2024-02-21T09:33:57;93701.41;;;4.70;86.84
85153;BME280;75520;43.358;19.362;2024-02-21T09:36:22;93673.94;;;4.52;86.96
85153;BME280;75520;43.358;19.362;2024-02-21T09:38:48;93707.94;;;4.72;86.07
85153;BME280;75520;43.358;19.362;2024-02-21T09:41:18;93706.34;;;4.76;86.39
85153;BME280;75520;43.358;19.362;2024-02-21T09:43:43;93716.81;;;4.81;87.36
85153;BME280;75520;43.358;19.362;2024-02-21T09:46:17;93711.25;;;4.83;86.92
85153;BME280;75520;43.358;19.362;2024-02-21T09:49:22;93712.94;;;4.74;86.78
85153;BME280;75520;43.358;19.362;2024-02-21T09:51:51;93712.94;;;4.74;86.89
85153;BME280;75520;43.358;19.362;2024-02-21T09:54:18;93709.22;;;4.80;86.25
85153;BME280;75520;43.358;19.362;2024-02-21T09:56:46;93716.94;;;4.95;86.04
85153;BME280;75520;43.358;19.362;2024-02-21T09:59:14;93714.75;;;5.02;86.04
85153;BME280;75520;43.358;19.362;2024-02-21T10:01:42;93685.44;;;4.90;85.81
85153;BME280;75520;43.358;19.362;2024-02-21T10:04:08;93719.00;;;5.22;85.61
85153;BME280;75520;43.358;19.362;2024-02-21T10:06:34;93719.25;;;5.26;85.49
85153;BME280;75520;43.358;19.362;2024-02-21T10:09:03;93716.66;;;5.20;84.75
85153;BME280;75520;43.358;19.362;2024-02-21T10:11:28;93708.47;;;5.22;85.25
85153;BME280;75520;43.358;19.362;2024-02-21T10:14:07;93713.75;;;5.22;84.98
85153;BME280;75520;43.358;19.362;2024-02-21T10:16:33;93681.50;;;5.11;85.45
85153;BME280;75520;43.358;19.362;2024-02-21T10:18:59;93714.03;;;5.44;85.03
85153;BME280;75520;43.358;19.362;2024-02-21T10:21:24;93709.47;;;5.50;84.89
85153;BME280;75520;43.358;19.362;2024-02-21T10:23:51;93706.97;;;5.58;84.59
85153;BME280;75520;43.358;19.362;2024-02-21T10:26:20;93707.06;;;5.53;84.35
85153;BME280;75520;43.358;19.362;2024-02-21T10:28:49;93678.13;;;5.30;84.73
85153;BME280;75520;43.358;19.362;2024-02-21T10:31:23;93698.50;;;5.43;85.00
85153;BME280;75520;43.358;19.362;2024-02-21T10:33:59;93695.94;;;5.38;85.11
85153;BME280;75520;43.358;19.362;2024-02-21T10:36:28;93673.72;;;5.25;85.33
85153;BME280;75520;43.358;19.362;2024-02-21T10:38:54;93657.47;;;5.18;84.73
85153;BME280;75520;43.358;19.362;2024-02-21T10:41:21;93690.25;;;5.49;84.96
85153;BME280;75520;43.358;19.362;2024-02-21T10:43:50;93679.38;;;5.56;84.10
85153;BME280;75520;43.358;19.362;2024-02-21T10:46:19;93692.69;;;5.65;84.41
85153;BME280;75520;43.358;19.362;2024-02-21T10:48:47;93684.44;;;5.71;84.30
85153;BME280;75520;43.358;19.362;2024-02-21T10:51:18;93680.81;;;5.86;84.31
85153;BME280;75520;43.358;19.362;2024-02-21T10:56:38;93676.63;;;6.04;83.63
85153;BME280;75520;43.358;19.362;2024-02-21T10:59:06;93674.56;;;6.01;83.94
85153;BME280;75520;43.358;19.362;2024-02-21T11:01:32;93646.25;;;5.87;83.38
85153;BME280;75520;43.358;19.362;2024-02-21T11:04:03;93640.88;;;5.97;83.34
85153;BME280;75520;43.358;19.362;2024-02-21T11:06:29;93659.91;;;6.27;83.26
85153;BME280;75520;43.358;19.362;2024-02-21T11:09:02;93658.22;;;6.50;82.66
85153;BME280;75520;43.358;19.362;2024-02-21T11:11:28;93659.91;;;6.73;82.95
85153;BME280;75520;43.358;19.362;2024-02-21T11:14:04;93657.13;;;6.97;80.58
85153;BME280;75520;43.358;19.362;2024-02-21T11:16:40;93663.66;;;7.13;80.98
85153;BME280;75520;43.358;19.362;2024-02-21T11:19:23;93653.69;;;7.24;78.70
85153;BME280;75520;43.358;19.362;2024-02-21T11:21:50;93653.06;;;7.40;80.95
85153;BME280;75520;43.358;19.362;2024-02-21T11:24:29;93647.03;;;7.40;78.20
85153;BME280;75520;43.358;19.362;2024-02-21T11:26:56;93643.00;;;7.56;81.53
85153;BME280;75520;43.358;19.362;2024-02-21T11:29:25;93643.69;;;7.84;80.01
85153;BME280;75520;43.358;19.362;2024-02-21T11:31:54;93641.84;;;7.85;80.58
85153;BME280;75520;43.358;19.362;2024-02-21T11:34:20;93638.84;;;8.00;80.82
85153;BME280;75520;43.358;19.362;2024-02-21T11:36:47;93641.66;;;7.81;80.09
85153;BME280;75520;43.358;19.362;2024-02-21T11:39:26;93634.19;;;7.83;79.35
85153;BME280;75520;43.358;19.362;2024-02-21T11:42:05;93639.06;;;7.90;77.98
85153;BME280;75520;43.358;19.362;2024-02-21T11:44:33;93627.47;;;7.99;79.83
85153;BME280;75520;43.358;19.362;2024-02-21T11:46:59;93622.03;;;7.96;79.52
85153;BME280;75520;43.358;19.362;2024-02-21T11:49:26;93608.78;;;7.73;78.79
85153;BME280;75520;43.358;19.362;2024-02-21T11:52:00;93617.16;;;7.53;78.49
85153;BME280;75520;43.358;19.362;2024-02-21T11:54:27;93615.22;;;7.45;79.76
85153;BME280;75520;43.358;19.362;2024-02-21T11:56:53;93612.88;;;7.43;80.01
85153;BME280;75520;43.358;19.362;2024-02-21T11:59:19;93568.63;;;7.13;79.93
85153;BME280;75520;43.358;19.362;2024-02-21T12:01:45;93590.09;;;7.34;79.80
85153;BME280;75520;43.358;19.362;2024-02-21T12:04:10;93594.50;;;7.38;79.73
85153;BME280;75520;43.358;19.362;2024-02-21T12:06:36;93586.28;;;7.40;79.98
85153;BME280;75520;43.358;19.362;2024-02-21T12:09:01;93585.31;;;7.36;79.87
85153;BME280;75520;43.358;19.362;2024-02-21T12:11:27;93581.59;;;7.37;80.01
85153;BME280;75520;43.358;19.362;2024-02-21T12:14:03;93583.16;;;7.38;79.08
85153;BME280;75520;43.358;19.362;2024-02-21T12:16:33;93576.88;;;7.48;80.08
85153;BME280;75520;43.358;19.362;2024-02-21T12:19:00;93570.28;;;7.59;79.62
85153;BME280;75520;43.358;19.362;2024-02-21T12:21:33;93560.72;;;7.71;78.40
85153;BME280;75520;43.358;19.362;2024-02-21T12:24:23;93555.09;;;7.87;76.22
85153;BME280;75520;43.358;19.362;2024-02-21T12:26:52;93548.41;;;7.89;77.98
85153;BME280;75520;43.358;19.362;2024-02-21T12:29:19;93545.13;;;8.06;75.45
85153;BME280;75520;43.358;19.362;2024-02-21T12:31:45;93536.59;;;8.17;78.32
85153;BME280;75520;43.358;19.362;2024-02-21T12:34:10;93535.41;;;8.24;77.46
85153;BME280;75520;43.358;19.362;2024-02-21T12:36:41;93535.66;;;8.13;76.43
85153;BME280;75520;43.358;19.362;2024-02-21T12:39:10;93527.44;;;8.15;78.48
85153;BME280;75520;43.358;19.362;2024-02-21T12:41:37;93495.53;;;7.89;78.28
85153;BME280;75520;43.358;19.362;2024-02-21T12:44:10;93513.09;;;7.85;77.99
85153;BME280;75520;43.358;19.362;2024-02-21T12:46:39;93497.69;;;7.56;78.36
85153;BME280;75520;43.358;19.362;2024-02-21T12:49:05;93517.38;;;7.72;78.62
85153;BME280;75520;43.358;19.362;2024-02-21T12:51:33;93517.66;;;7.93;78.96
85153;BME280;75520;43.358;19.362;2024-02-21T12:53:59;93481.81;;;8.09;78.11
85153;BME280;75520;43.358;19.362;2024-02-21T12:56:25;93499.72;;;8.91;78.29
85153;BME280;75520;43.358;19.362;2024-02-21T12:58:53;93503.50;;;9.77;76.74
85153;BME280;75520;43.358;19.362;2024-02-21T13:01:20;93501.38;;;10.72;76.52